createdAt,value
2018-08-03T00:00:36.074Z,95411.18
2018-08-03T00:03:05.956Z,95404.55
2018-08-03T00:05:35.836Z,95408.16
2018-08-03T00:08:05.606Z,95408.03
2018-08-03T00:10:35.404Z,95404.89
2018-08-03T00:13:05.317Z,95405.71
2018-08-03T00:15:35.158Z,95405.51
2018-08-03T00:18:04.976Z,95399.63
2018-08-03T00:20:34.928Z,95408.05
2018-08-03T00:23:05.009Z,95400.77
2018-08-03T00:25:34.814Z,95401.84
2018-08-03T00:28:04.611Z,95397.25
2018-08-03T00:30:34.440Z,95398.91
2018-08-03T00:33:04.177Z,95398.77
2018-08-03T00:35:33.875Z,95391.02
2018-08-03T00:38:03.846Z,95399.90
2018-08-03T00:40:33.547Z,95392.55
2018-08-03T00:43:03.334Z,95392.55
2018-08-03T00:45:33.081Z,95395.97
2018-08-03T00:48:02.936Z,95390.61
2018-08-03T00:50:32.857Z,95391.61
2018-08-03T00:53:03.054Z,95389.38
2018-08-03T00:55:32.777Z,95392.28
2018-08-03T00:58:02.811Z,95392.32
2018-08-03T01:00:32.504Z,95389.81
2018-08-03T01:03:02.298Z,95386.68
2018-08-03T01:05:31.989Z,95389.38
2018-08-03T01:08:01.729Z,95390.85
2018-08-03T01:10:31.534Z,95391.52
2018-08-03T01:13:01.403Z,95395.81
2018-08-03T01:15:31.132Z,95398.84
2018-08-03T01:18:00.914Z,95403.27
2018-08-03T01:20:30.799Z,95396.20
2018-08-03T01:23:00.567Z,95398.98
2018-08-03T01:25:30.349Z,95394.53
2018-08-03T01:28:00.039Z,95398.98
2018-08-03T01:30:29.784Z,95396.56
2018-08-03T01:32:59.549Z,95402.61
2018-08-03T01:35:29.240Z,95401.70
2018-08-03T01:37:59.202Z,95396.44
2018-08-03T01:40:29.096Z,95400.79
2018-08-03T01:42:58.841Z,95398.23
2018-08-03T01:45:28.563Z,95379.00
2018-08-03T01:47:58.301Z,95381.34
2018-08-03T01:50:28.385Z,95397.89
2018-08-03T01:52:58.245Z,95383.75
2018-08-03T01:55:28.356Z,95378.67
2018-08-03T01:57:58.193Z,95388.09
2018-08-03T02:00:28.065Z,95383.28
2018-08-03T02:02:57.979Z,95384.74
2018-08-03T02:05:27.767Z,95385.05
2018-08-03T02:07:57.549Z,95380.69
2018-08-03T02:10:27.318Z,95381.56
2018-08-03T02:12:57.096Z,95384.63
2018-08-03T02:15:26.857Z,95383.14
2018-08-03T02:17:56.670Z,95382.83
2018-08-03T02:20:26.433Z,95393.25
2018-08-03T02:22:56.227Z,95397.25
2018-08-03T02:25:26.096Z,95397.06
2018-08-03T02:27:55.854Z,95397.20
2018-08-03T02:30:25.606Z,95391.46
2018-08-03T02:32:55.409Z,95395.97
2018-08-03T02:35:25.200Z,95395.75
2018-08-03T02:37:55.041Z,95396.63
2018-08-03T02:40:24.809Z,95398.80
2018-08-03T02:42:54.577Z,95396.03
2018-08-03T02:45:24.462Z,95395.28
2018-08-03T02:47:54.249Z,95399.11
2018-08-03T02:50:23.934Z,95396.94
2018-08-03T02:52:53.985Z,95397.73
2018-08-03T02:55:23.800Z,95397.86
2018-08-03T02:57:53.953Z,95389.64
2018-08-03T03:00:23.856Z,95385.93
2018-08-03T03:02:53.639Z,95392.20
2018-08-03T03:05:23.481Z,95398.80
2018-08-03T03:07:53.318Z,95398.02
2018-08-03T03:10:23.114Z,95387.08
2018-08-03T03:12:52.925Z,95398.08
2018-08-03T03:15:22.850Z,95393.48
2018-08-03T03:17:52.555Z,95400.94
2018-08-03T03:20:22.358Z,95405.59
2018-08-03T03:22:52.263Z,95409.17
2018-08-03T03:25:22.127Z,95412.11
2018-08-03T03:27:51.926Z,95410.41
2018-08-03T03:30:21.703Z,95407.17
2018-08-03T03:32:51.650Z,95415.83
2018-08-03T03:35:21.352Z,95334.28
2018-08-03T03:37:51.125Z,95426.72
2018-08-03T03:40:21.001Z,95423.25
2018-08-03T03:42:50.756Z,95427.25
2018-08-03T03:45:20.426Z,95426.67
2018-08-03T03:47:50.281Z,95436.47
2018-08-03T03:50:20.061Z,95437.22
2018-08-03T03:52:49.990Z,95436.96
2018-08-03T03:55:19.739Z,95435.52
2018-08-03T03:57:49.522Z,95435.17
2018-08-03T04:00:19.458Z,95438.35
2018-08-03T04:02:49.418Z,95434.91
2018-08-03T04:05:19.220Z,95433.00
2018-08-03T04:07:48.966Z,95430.68
2018-08-03T04:10:18.853Z,95433.34
2018-08-03T04:12:48.665Z,95435.35
2018-08-03T04:15:18.406Z,95435.76
2018-08-03T04:17:48.122Z,95432.11
2018-08-03T04:20:17.993Z,95440.91
2018-08-03T04:22:47.726Z,95444.33
2018-08-03T04:25:17.303Z,95439.98
2018-08-03T04:27:47.218Z,95440.14
2018-08-03T04:30:17.038Z,95438.83
2018-08-03T04:32:46.903Z,95441.12
2018-08-03T04:35:16.794Z,95443.60
2018-08-03T04:37:46.644Z,95449.23
2018-08-03T04:40:16.545Z,95405.31
2018-08-03T04:42:46.267Z,95448.38
2018-08-03T04:45:16.191Z,95451.55
2018-08-03T04:47:45.724Z,95462.36
2018-08-03T04:50:15.486Z,95473.86
2018-08-03T04:52:45.298Z,95480.86
2018-08-03T04:55:15.103Z,95478.69
2018-08-03T04:57:44.775Z,95483.91
2018-08-03T05:00:14.548Z,95478.47
2018-08-03T05:02:44.305Z,95477.77
2018-08-03T05:05:14.083Z,95471.80
2018-08-03T05:07:43.824Z,95473.30
2018-08-03T05:10:13.717Z,95469.36
2018-08-03T05:12:43.547Z,95465.95
2018-08-03T05:15:13.256Z,95464.02
2018-08-03T05:17:43.037Z,95462.06
2018-08-03T05:20:12.889Z,95450.58
2018-08-03T05:22:42.659Z,95454.59
2018-08-03T05:25:13.133Z,95457.23
2018-08-03T05:27:43.381Z,95455.82
2018-08-03T05:30:14.015Z,95459.14
2018-08-03T05:32:44.639Z,95454.17
2018-08-03T05:35:15.193Z,95456.13
2018-08-03T05:37:46.448Z,95454.95
2018-08-03T05:40:17.292Z,95453.07
2018-08-03T05:42:47.767Z,95457.31
2018-08-03T05:45:17.753Z,95463.02
2018-08-03T05:47:47.927Z,95457.36
2018-08-03T05:50:17.939Z,95459.97
2018-08-03T05:52:47.725Z,95466.33
2018-08-03T05:55:17.538Z,95456.63
2018-08-03T05:57:47.338Z,95462.06
2018-08-03T06:00:17.306Z,95467.49
2018-08-03T06:02:47.318Z,95456.55
2018-08-03T06:05:17.109Z,95454.53
2018-08-03T06:07:47.037Z,95455.98
2018-08-03T06:10:16.754Z,95455.70
2018-08-03T06:12:46.563Z,95456.11
2018-08-03T06:15:16.394Z,95441.80
2018-08-03T06:17:46.218Z,95447.38
2018-08-03T06:20:16.119Z,95446.71
2018-08-03T06:22:45.925Z,95444.78
2018-08-03T06:25:15.750Z,95441.43
2018-08-03T06:27:45.573Z,95438.13
2018-08-03T06:30:15.311Z,95427.50
2018-08-03T06:32:45.167Z,95434.06
2018-08-03T06:35:14.817Z,95429.49
2018-08-03T06:37:44.654Z,95430.12
2018-08-03T06:40:14.415Z,95427.73
2018-08-03T06:42:44.208Z,95429.03
2018-08-03T06:45:13.995Z,95426.97
2018-08-03T06:47:43.749Z,95423.31
2018-08-03T06:50:13.386Z,95421.00
2018-08-03T06:52:43.237Z,95412.37
2018-08-03T06:55:13.113Z,95410.34
2018-08-03T06:57:42.840Z,95409.47
2018-08-03T07:00:14.229Z,95402.91
2018-08-03T07:02:44.210Z,95401.41
2018-08-03T07:05:13.949Z,95399.22
2018-08-03T07:07:43.773Z,95397.80
2018-08-03T07:10:13.718Z,95394.41
2018-08-03T07:12:43.567Z,95394.05
2018-08-03T07:15:13.412Z,95390.33
2018-08-03T07:17:43.171Z,95396.58
2018-08-03T07:20:13.112Z,95392.48
2018-08-03T07:22:42.969Z,95383.06
2018-08-03T07:25:12.663Z,95383.45
2018-08-03T07:27:42.240Z,95377.41
2018-08-03T07:30:12.059Z,95380.17
2018-08-03T07:32:42.233Z,95377.60
2018-08-03T07:35:13.056Z,95377.55
2018-08-03T07:37:43.541Z,95375.77
2018-08-03T07:40:14.162Z,95363.44
2018-08-03T07:42:44.664Z,95366.85
2018-08-03T07:45:15.119Z,95373.44
2018-08-03T07:47:46.575Z,95372.66
2018-08-03T07:50:16.471Z,95367.53
2018-08-03T07:52:46.197Z,95368.44
2018-08-03T07:55:15.894Z,95359.52
2018-08-03T07:57:46.365Z,95362.27
2018-08-03T08:00:16.093Z,95359.36
2018-08-03T08:02:45.932Z,95357.49
2018-08-03T08:05:15.843Z,95361.48
2018-08-03T08:07:45.572Z,95356.03
2018-08-03T08:10:15.364Z,95347.45
2018-08-03T08:12:45.067Z,95351.86
2018-08-03T08:15:14.790Z,95346.98
2018-08-03T08:17:44.553Z,95348.09
2018-08-03T08:20:14.157Z,95347.16
2018-08-03T08:22:44.020Z,95335.01
2018-08-03T08:25:13.769Z,95343.07
2018-08-03T08:27:43.532Z,95333.31
2018-08-03T08:30:13.356Z,95337.69
2018-08-03T08:32:43.118Z,95334.17
2018-08-03T08:35:12.981Z,95326.94
2018-08-03T08:37:42.790Z,95326.79
2018-08-03T08:40:13.355Z,95336.33
2018-08-03T08:42:43.584Z,95329.87
2018-08-03T08:45:14.031Z,95326.15
2018-08-03T08:47:45.373Z,95323.59
2018-08-03T08:50:15.839Z,95316.56
2018-08-03T08:52:46.284Z,95323.08
2018-08-03T08:55:16.801Z,95321.33
2018-08-03T08:57:48.509Z,95326.16
2018-08-03T09:00:19.159Z,95329.31
2018-08-03T09:02:49.882Z,95316.81
2018-08-03T09:05:20.234Z,95304.88
2018-08-03T09:07:51.897Z,95317.15
2018-08-03T09:10:22.495Z,95320.60
2018-08-03T09:12:53.327Z,95313.56
2018-08-03T09:15:23.992Z,95315.22
2018-08-03T09:17:55.236Z,95314.13
2018-08-03T09:20:25.654Z,95304.18
2018-08-03T09:22:56.213Z,95314.88
2018-08-03T09:25:26.510Z,95315.33
2018-08-03T09:27:57.413Z,95302.52
2018-08-03T09:30:27.888Z,95311.25
2018-08-03T09:32:58.815Z,95309.27
2018-08-03T09:35:29.173Z,95300.76
2018-08-03T09:38:00.399Z,95304.77
2018-08-03T09:40:31.139Z,95312.77
2018-08-03T09:43:01.728Z,95298.95
2018-08-03T09:45:32.277Z,95299.44
2018-08-03T09:48:03.620Z,95297.23
2018-08-03T09:50:33.305Z,95286.83
2018-08-03T09:53:03.067Z,95284.06
2018-08-03T09:55:32.914Z,95285.50
2018-08-03T09:58:03.447Z,95284.92
2018-08-03T10:00:38.191Z,95285.04
2018-08-03T10:03:08.737Z,95287.16
2018-08-03T10:05:39.459Z,95278.55
2018-08-03T10:08:09.553Z,95276.83
2018-08-03T10:10:39.488Z,95278.50
2018-08-03T10:13:09.676Z,95279.83
2018-08-03T10:15:39.684Z,95278.56
2018-08-03T10:18:09.766Z,95280.27
2018-08-03T10:20:39.641Z,95274.31
2018-08-03T10:23:09.701Z,95269.80
2018-08-03T10:25:39.573Z,95270.24
2018-08-03T10:28:09.436Z,95265.96
2018-08-03T10:30:39.373Z,95257.77
2018-08-03T10:33:09.259Z,95265.84
2018-08-03T10:35:39.050Z,95268.07
2018-08-03T10:38:08.867Z,95261.45
2018-08-03T10:40:38.790Z,95258.35
2018-08-03T10:43:08.895Z,95248.31
2018-08-03T10:45:38.866Z,95252.25
2018-08-03T10:48:08.866Z,95248.56
2018-08-03T10:50:38.614Z,95246.67
2018-08-03T10:53:09.098Z,95247.17
2018-08-03T10:55:38.859Z,95237.09
2018-08-03T10:58:08.733Z,95238.63
2018-08-03T11:00:39.075Z,95234.80
2018-08-03T11:03:09.304Z,95241.96
2018-08-03T11:05:39.171Z,95234.06
2018-08-03T11:08:09.731Z,95233.41
2018-08-03T11:10:39.927Z,95232.79
2018-08-03T11:13:10.433Z,95230.61
2018-08-03T11:15:40.874Z,95231.55
2018-08-03T11:18:11.638Z,95234.61
2018-08-03T11:20:42.100Z,95234.06
2018-08-03T11:23:12.757Z,95221.07
2018-08-03T11:25:43.061Z,95223.91
2018-08-03T11:28:13.797Z,95220.14
2018-08-03T11:30:44.393Z,95218.53
2018-08-03T11:33:14.835Z,95212.09
2018-08-03T11:35:45.677Z,95212.34
2018-08-03T11:38:16.717Z,95206.77
2018-08-03T11:40:47.265Z,95218.93
2018-08-03T11:43:17.760Z,95210.84
2018-08-03T11:45:48.491Z,95215.02
2018-08-03T11:48:19.611Z,95211.34
2018-08-03T11:50:50.305Z,95211.28
2018-08-03T11:53:21.053Z,95207.35
2018-08-03T11:55:51.968Z,95207.30
2018-08-03T11:58:22.870Z,95204.38
2018-08-03T12:00:53.585Z,95202.70
2018-08-03T12:03:23.951Z,95207.53
2018-08-03T12:05:54.514Z,95207.53
2018-08-03T12:08:25.376Z,95202.71
2018-08-03T12:10:56.048Z,95200.02
2018-08-03T12:13:26.467Z,95132.34
2018-08-03T12:15:57.129Z,95198.08
2018-08-03T12:18:29.267Z,95196.02
2018-08-03T12:20:59.016Z,95195.67
2018-08-03T12:23:28.887Z,95191.74
2018-08-03T12:25:58.812Z,95204.63
2018-08-03T12:28:30.145Z,95201.39
2018-08-03T12:31:00.629Z,95201.03
2018-08-03T12:33:31.322Z,95205.78
2018-08-03T12:36:01.542Z,95202.30
2018-08-03T12:38:32.179Z,95198.50
2018-08-03T12:41:02.761Z,95190.24
2018-08-03T12:43:33.531Z,95195.17
2018-08-03T12:46:04.191Z,95192.38
2018-08-03T12:48:35.527Z,95195.41
2018-08-03T12:51:06.148Z,95189.50
2018-08-03T12:53:37.078Z,95195.77
2018-08-03T12:56:07.508Z,95189.00
2018-08-03T12:58:39.101Z,95173.19
2018-08-03T13:01:09.670Z,95173.97
2018-08-03T13:03:40.089Z,95187.28
2018-08-03T13:06:10.368Z,95183.38
2018-08-03T13:08:41.743Z,95180.31
2018-08-03T13:11:12.378Z,95167.71
2018-08-03T13:13:43.045Z,95178.20
2018-08-03T13:16:13.793Z,95174.11
2018-08-03T13:18:44.766Z,95176.34
2018-08-03T13:21:25.947Z,95173.97
2018-08-03T13:24:00.393Z,95171.27
2018-08-03T13:26:30.776Z,95173.17
2018-08-03T13:29:01.550Z,95170.20
2018-08-03T13:31:32.488Z,95174.03
2018-08-03T13:34:03.189Z,95178.64
2018-08-03T13:36:33.925Z,95167.56
2018-08-03T13:39:05.623Z,95177.24
2018-08-03T13:41:36.565Z,95177.20
2018-08-03T13:44:07.092Z,95168.28
2018-08-03T13:46:37.615Z,95166.59
2018-08-03T13:49:08.740Z,95168.92
2018-08-03T13:51:39.288Z,95165.62
2018-08-03T13:54:09.928Z,95161.00
2018-08-03T13:56:40.445Z,95155.66
2018-08-03T13:59:11.864Z,95158.63
2018-08-03T14:02:45.382Z,95158.38
2018-08-03T14:05:16.142Z,95154.55
2018-08-03T14:07:47.081Z,95154.16
2018-08-03T14:10:17.750Z,95144.78
2018-08-03T14:12:48.606Z,95155.14
2018-08-03T14:15:19.339Z,95149.41
2018-08-03T14:17:50.692Z,95155.33
2018-08-03T14:20:20.986Z,95153.16
2018-08-03T14:22:51.897Z,95163.34
2018-08-03T14:25:22.146Z,95161.97
2018-08-03T14:27:53.640Z,95165.20
2018-08-03T14:30:24.501Z,95168.85
2018-08-03T14:32:54.627Z,95181.44
2018-08-03T14:35:24.915Z,95173.72
2018-08-03T14:37:55.730Z,95172.52
2018-08-03T14:40:26.509Z,95175.59
2018-08-03T14:42:56.687Z,95173.52
2018-08-03T14:45:27.006Z,95170.72
2018-08-03T14:47:58.174Z,95172.09
2018-08-03T14:50:28.744Z,95173.20
2018-08-03T14:52:58.917Z,95177.29
2018-08-03T14:55:29.449Z,95172.53
2018-08-03T14:58:00.842Z,95172.59
2018-08-03T15:00:32.027Z,95167.28
2018-08-03T15:03:02.407Z,95175.06
2018-08-03T15:05:33.080Z,95170.98
2018-08-03T15:08:04.914Z,95168.11
2018-08-03T15:10:35.379Z,95168.63
2018-08-03T15:13:06.060Z,95178.20
2018-08-03T15:15:37.446Z,95171.10
2018-08-03T15:18:08.208Z,95172.81
2018-08-03T15:20:38.753Z,95175.00
2018-08-03T15:23:09.466Z,95180.12
2018-08-03T15:25:40.085Z,95187.03
2018-08-03T15:28:11.391Z,95182.67
2018-08-03T15:30:41.980Z,95186.20
2018-08-03T15:33:12.293Z,95184.89
2018-08-03T15:35:42.731Z,95190.71
2018-08-03T15:38:13.647Z,95187.34
2018-08-03T15:40:43.831Z,95189.41
2018-08-03T15:43:14.421Z,95195.30
2018-08-03T15:45:44.468Z,95190.86
2018-08-03T15:48:18.039Z,95190.38
2018-08-03T15:50:48.474Z,95187.71
2018-08-03T15:53:18.809Z,95186.92
2018-08-03T15:55:49.121Z,95195.34
2018-08-03T15:58:19.614Z,95192.55
2018-08-03T16:00:49.349Z,94993.64
2018-08-03T16:03:19.185Z,95189.63
2018-08-03T16:05:49.028Z,95195.70
2018-08-03T16:08:19.163Z,95196.39
2018-08-03T16:10:49.099Z,95200.11
2018-08-03T16:13:19.008Z,95198.52
2018-08-03T16:15:49.093Z,95198.92
2018-08-03T16:18:18.816Z,95199.70
2018-08-03T16:20:48.745Z,95200.82
2018-08-03T16:23:18.485Z,95205.13
2018-08-03T16:25:48.261Z,95209.02
2018-08-03T16:28:18.078Z,95203.37
2018-08-03T16:30:47.840Z,95207.08
2018-08-03T16:33:17.746Z,95211.36
2018-08-03T16:35:48.047Z,95214.29
2018-08-03T16:38:17.973Z,95214.71
2018-08-03T16:40:47.721Z,95221.13
2018-08-03T16:43:17.498Z,95222.91
2018-08-03T16:45:47.366Z,95225.25
2018-08-03T16:48:17.204Z,95238.09
2018-08-03T16:50:47.037Z,95236.88
2018-08-03T16:53:16.873Z,95239.51
2018-08-03T16:55:46.743Z,95249.84
2018-08-03T16:58:16.515Z,95243.67
2018-08-03T17:00:46.210Z,95245.52
2018-08-03T17:03:15.824Z,95246.78
2018-08-03T17:05:45.665Z,95255.60
2018-08-03T17:08:15.568Z,95259.55
2018-08-03T17:10:46.048Z,95258.67
2018-08-03T17:13:16.018Z,95255.11
2018-08-03T17:15:45.788Z,95257.36
2018-08-03T17:18:15.939Z,95260.59
2018-08-03T17:20:46.026Z,95219.40
2018-08-03T17:23:15.866Z,95263.75
2018-08-03T17:25:45.775Z,95264.48
2018-08-03T17:28:15.704Z,95260.20
2018-08-03T17:30:45.630Z,95261.63
2018-08-03T17:33:15.486Z,95259.51
2018-08-03T17:35:45.326Z,95257.97
2018-08-03T17:38:17.446Z,95259.06
2018-08-03T17:40:47.434Z,95259.81
2018-08-03T17:43:17.342Z,95262.55
2018-08-03T17:45:47.229Z,95262.70
2018-08-03T17:48:17.146Z,95266.94
2018-08-03T17:50:46.873Z,95266.52
2018-08-03T17:53:16.819Z,95264.60
2018-08-03T17:55:46.759Z,95261.41
2018-08-03T17:58:18.849Z,95261.41
2018-08-03T18:00:48.490Z,95265.80
2018-08-03T18:03:18.500Z,95263.23
2018-08-03T18:05:49.159Z,95269.38
2018-08-03T18:08:19.985Z,95271.14
2018-08-03T18:10:50.696Z,95279.23
2018-08-03T18:13:21.229Z,95284.59
2018-08-03T18:15:51.157Z,95283.09
2018-08-03T18:18:21.939Z,95287.11
2018-08-03T18:20:51.977Z,95298.16
2018-08-03T18:23:21.848Z,95299.61
2018-08-03T18:25:51.710Z,95303.27
2018-08-03T18:28:21.373Z,95301.92
2018-08-03T18:30:51.274Z,95085.31
2018-08-03T18:33:21.090Z,95306.78
2018-08-03T18:35:50.759Z,95309.05
2018-08-03T18:38:20.620Z,95321.43
2018-08-03T18:40:50.368Z,95325.10
2018-08-03T18:43:20.088Z,95321.31
2018-08-03T18:45:49.952Z,95332.89
2018-08-03T18:48:19.962Z,95338.70
2018-08-03T18:50:49.787Z,95339.05
2018-08-03T18:53:19.570Z,95339.05
2018-08-03T18:55:49.575Z,95334.51
2018-08-03T18:58:19.403Z,95338.36
2018-08-03T19:00:49.522Z,95336.05
2018-08-03T19:03:20.430Z,95336.39
2018-08-03T19:05:50.563Z,95336.05
2018-08-03T19:08:20.474Z,95352.36
2018-08-03T19:10:50.327Z,95343.42
2018-08-03T19:13:20.131Z,95354.06
2018-08-03T19:15:49.929Z,95350.61
2018-08-03T19:18:19.760Z,95348.30
2018-08-03T19:20:49.659Z,95356.03
2018-08-03T19:23:19.649Z,95357.02
2018-08-03T19:25:49.481Z,95354.27
2018-08-03T19:28:19.189Z,95354.49
2018-08-03T19:30:49.019Z,95371.22
2018-08-03T19:33:18.826Z,95374.75
2018-08-03T19:35:48.555Z,95375.31
2018-08-03T19:38:18.559Z,95368.83
2018-08-03T19:40:48.516Z,95377.81
2018-08-03T19:43:18.338Z,95377.89
2018-08-03T19:45:48.106Z,95387.78
2018-08-03T19:48:17.901Z,95391.94
2018-08-03T19:50:47.699Z,95381.94
2018-08-03T19:53:17.434Z,95383.16
2018-08-03T19:55:47.117Z,95386.42
2018-08-03T19:58:16.878Z,95395.69
2018-08-03T20:00:46.611Z,95397.63
2018-08-03T20:03:16.320Z,95390.81
2018-08-03T20:05:46.052Z,95397.49
2018-08-03T20:08:15.754Z,95403.72
2018-08-03T20:10:45.610Z,95403.80
2018-08-03T20:13:15.398Z,95404.25
2018-08-03T20:15:45.410Z,95404.87
2018-08-03T20:18:15.191Z,95407.47
2018-08-03T20:20:45.003Z,95407.50
2018-08-03T20:23:14.880Z,95413.47
2018-08-03T20:25:45.292Z,95414.45
2018-08-03T20:28:15.171Z,95411.83
2018-08-03T20:30:45.028Z,95413.69
2018-08-03T20:33:14.878Z,95412.23
2018-08-03T20:35:44.610Z,95418.45
2018-08-03T20:38:14.370Z,95416.36
2018-08-03T20:40:44.218Z,95418.61
2018-08-03T20:43:13.957Z,95420.72
2018-08-03T20:45:43.804Z,95422.90
2018-08-03T20:48:13.986Z,95432.94
2018-08-03T20:50:43.709Z,95426.49
2018-08-03T20:53:13.533Z,95430.55
2018-08-03T20:55:43.307Z,95434.47
2018-08-03T20:58:13.205Z,95438.41
2018-08-03T21:00:43.032Z,95432.67
2018-08-03T21:03:12.791Z,95436.59
2018-08-03T21:05:42.511Z,95440.04
2018-08-03T21:08:12.211Z,95443.02
2018-08-03T21:10:42.054Z,95435.86
2018-08-03T21:13:11.801Z,95436.94
2018-08-03T21:15:41.668Z,95435.96
2018-08-03T21:18:11.425Z,95427.70
2018-08-03T21:20:41.244Z,95428.26
2018-08-03T21:23:10.931Z,95429.61
2018-08-03T21:25:40.862Z,95434.87
2018-08-03T21:28:10.604Z,95431.34
2018-08-03T21:30:40.365Z,95440.36
2018-08-03T21:33:10.192Z,95434.12
2018-08-03T21:35:39.999Z,95438.22
2018-08-03T21:38:09.828Z,95437.45
2018-08-03T21:40:39.662Z,95435.63
2018-08-03T21:43:09.530Z,95441.59
2018-08-03T21:45:39.430Z,95441.05
2018-08-03T21:48:09.260Z,95444.45
2018-08-03T21:50:39.080Z,95436.89
2018-08-03T21:53:08.977Z,95433.52
2018-08-03T21:55:38.875Z,95439.66
2018-08-03T21:58:08.592Z,95434.77
2018-08-03T22:00:38.429Z,95438.30
2018-08-03T22:03:08.237Z,95438.38
2018-08-03T22:05:38.099Z,95441.19
2018-08-03T22:08:07.922Z,95435.58
2018-08-03T22:10:37.712Z,95441.86
2018-08-03T22:13:07.551Z,95432.76
2018-08-03T22:15:37.296Z,95431.85
2018-08-03T22:18:07.052Z,95435.34
2018-08-03T22:20:36.927Z,95438.46
2018-08-03T22:23:06.784Z,95442.98
2018-08-03T22:25:36.685Z,95438.71
2018-08-03T22:28:06.503Z,95430.29
2018-08-03T22:30:36.684Z,95433.55
2018-08-03T22:33:06.398Z,95427.14
2018-08-03T22:35:36.235Z,95429.58
2018-08-03T22:38:05.973Z,95425.75
2018-08-03T22:40:35.770Z,95428.78
2018-08-03T22:43:05.670Z,95432.09
2018-08-03T22:45:35.543Z,95432.62
2018-08-03T22:48:05.474Z,95432.05
2018-08-03T22:50:35.159Z,95426.86
2018-08-03T22:53:04.954Z,95422.26
2018-08-03T22:55:34.828Z,95412.83
2018-08-03T22:58:04.834Z,95417.22
2018-08-03T23:00:35.060Z,95420.47
2018-08-03T23:03:04.922Z,95416.08
2018-08-03T23:05:34.656Z,95414.05
2018-08-03T23:08:04.416Z,95413.98
2018-08-03T23:10:34.333Z,95407.19
2018-08-03T23:13:04.184Z,95408.48
2018-08-03T23:15:34.016Z,95410.55
2018-08-03T23:18:03.640Z,95406.30
2018-08-03T23:20:33.437Z,95404.83
2018-08-03T23:23:03.079Z,95406.61
2018-08-03T23:25:32.732Z,95410.74
2018-08-03T23:28:02.486Z,95406.09
2018-08-03T23:30:32.250Z,95413.97
2018-08-03T23:33:02.584Z,95408.95
2018-08-03T23:35:32.403Z,95405.98
2018-08-03T23:38:02.500Z,95400.89
2018-08-03T23:40:32.307Z,95397.72
2018-08-03T23:43:02.139Z,95394.55
2018-08-03T23:45:31.970Z,95402.05
2018-08-03T23:48:01.963Z,95393.44
2018-08-03T23:50:31.823Z,95403.73
2018-08-03T23:53:01.569Z,95403.89
2018-08-03T23:55:31.267Z,95403.88
2018-08-03T23:58:01.104Z,95398.58
